sensor_id;sensor_type;location;lat;lon;timestamp;temperature;humidity
12335;DHT22;6233;51.560;9.986;2022-12-24T00:02:14;8.90;99.90
12335;DHT22;6233;51.560;9.986;2022-12-24T00:05:16;8.90;99.90
12335;DHT22;6233;51.560;9.986;2022-12-24T00:08:18;8.90;99.90
12335;DHT22;6233;51.560;9.986;2022-12-24T00:11:20;8.90;99.90
12335;DHT22;6233;51.560;9.986;2022-12-24T00:14:22;8.80;99.90
12335;DHT22;6233;51.560;9.986;2022-12-24T00:17:24;8.80;99.90
12335;DHT22;6233;51.560;9.986;2022-12-24T00:20:25;8.90;99.90
12335;DHT22;6233;51.560;9.986;2022-12-24T00:23:27;8.90;99.90
12335;DHT22;6233;51.560;9.986;2022-12-24T00:26:29;8.90;99.90
12335;DHT22;6233;51.560;9.986;2022-12-24T00:29:31;8.90;99.90
12335;DHT22;6233;51.560;9.986;2022-12-24T00:32:36;8.90;99.90
12335;DHT22;6233;51.560;9.986;2022-12-24T00:35:39;8.90;99.90
12335;DHT22;6233;51.560;9.986;2022-12-24T00:38:41;8.90;99.90
12335;DHT22;6233;51.560;9.986;2022-12-24T00:41:43;9.00;99.90
12335;DHT22;6233;51.560;9.986;2022-12-24T00:44:45;9.00;99.90
12335;DHT22;6233;51.560;9.986;2022-12-24T00:47:46;8.90;99.90
12335;DHT22;6233;51.560;9.986;2022-12-24T00:50:49;8.90;99.90
12335;DHT22;6233;51.560;9.986;2022-12-24T00:53:52;9.00;99.90
12335;DHT22;6233;51.560;9.986;2022-12-24T00:56:53;8.90;99.90
12335;DHT22;6233;51.560;9.986;2022-12-24T00:59:55;8.90;99.90
12335;DHT22;6233;51.560;9.986;2022-12-24T01:02:57;9.00;99.90
12335;DHT22;6233;51.560;9.986;2022-12-24T01:05:59;9.00;99.90
12335;DHT22;6233;51.560;9.986;2022-12-24T01:09:00;8.90;99.90
12335;DHT22;6233;51.560;9.986;2022-12-24T01:12:02;8.90;99.90
12335;DHT22;6233;51.560;9.986;2022-12-24T01:15:04;8.90;99.90
12335;DHT22;6233;51.560;9.986;2022-12-24T01:18:06;8.90;99.90
12335;DHT22;6233;51.560;9.986;2022-12-24T01:21:08;9.00;99.90
12335;DHT22;6233;51.560;9.986;2022-12-24T01:24:14;9.00;99.90
12335;DHT22;6233;51.560;9.986;2022-12-24T01:27:16;9.00;99.90
12335;DHT22;6233;51.560;9.986;2022-12-24T01:30:18;8.90;99.90
12335;DHT22;6233;51.560;9.986;2022-12-24T01:33:20;8.90;99.90
12335;DHT22;6233;51.560;9.986;2022-12-24T01:36:21;8.90;99.90
12335;DHT22;6233;51.560;9.986;2022-12-24T01:39:23;8.90;99.90
12335;DHT22;6233;51.560;9.986;2022-12-24T01:42:25;8.90;99.90
12335;DHT22;6233;51.560;9.986;2022-12-24T01:45:48;8.90;99.90
12335;DHT22;6233;51.560;9.986;2022-12-24T01:49:02;8.90;99.90
12335;DHT22;6233;51.560;9.986;2022-12-24T01:52:08;8.90;99.90
12335;DHT22;6233;51.560;9.986;2022-12-24T01:55:16;8.90;99.90
12335;DHT22;6233;51.560;9.986;2022-12-24T01:58:19;8.80;99.90
12335;DHT22;6233;51.560;9.986;2022-12-24T02:01:22;8.90;99.90
12335;DHT22;6233;51.560;9.986;2022-12-24T02:04:56;8.80;99.90
12335;DHT22;6233;51.560;9.986;2022-12-24T02:08:01;8.80;99.90
12335;DHT22;6233;51.560;9.986;2022-12-24T02:11:18;8.80;99.90
12335;DHT22;6233;51.560;9.986;2022-12-24T02:14:20;8.70;99.90
12335;DHT22;6233;51.560;9.986;2022-12-24T02:27:36;8.60;99.90
12335;DHT22;6233;51.560;9.986;2022-12-24T02:30:51;8.60;99.90
12335;DHT22;6233;51.560;9.986;2022-12-24T02:37:16;8.60;99.90
12335;DHT22;6233;51.560;9.986;2022-12-24T02:40:30;8.70;99.90
12335;DHT22;6233;51.560;9.986;2022-12-24T02:43:36;8.70;99.90
12335;DHT22;6233;51.560;9.986;2022-12-24T02:46:39;8.70;99.90
12335;DHT22;6233;51.560;9.986;2022-12-24T02:49:44;8.70;99.90
12335;DHT22;6233;51.560;9.986;2022-12-24T02:52:47;8.70;99.90
12335;DHT22;6233;51.560;9.986;2022-12-24T02:56:04;8.70;99.90
12335;DHT22;6233;51.560;9.986;2022-12-24T03:05:50;8.70;99.90
12335;DHT22;6233;51.560;9.986;2022-12-24T03:12:53;8.60;99.90
12335;DHT22;6233;51.560;9.986;2022-12-24T03:15:56;8.60;99.90
12335;DHT22;6233;51.560;9.986;2022-12-24T03:18:58;8.60;99.90
12335;DHT22;6233;51.560;9.986;2022-12-24T03:22:03;8.60;99.90
12335;DHT22;6233;51.560;9.986;2022-12-24T03:25:08;8.60;99.90
12335;DHT22;6233;51.560;9.986;2022-12-24T03:28:12;8.60;99.90
12335;DHT22;6233;51.560;9.986;2022-12-24T03:31:15;8.60;99.90
12335;DHT22;6233;51.560;9.986;2022-12-24T03:34:18;8.60;99.90
12335;DHT22;6233;51.560;9.986;2022-12-24T03:37:20;8.60;99.90
12335;DHT22;6233;51.560;9.986;2022-12-24T03:40:22;8.60;99.90
12335;DHT22;6233;51.560;9.986;2022-12-24T03:43:24;8.60;99.90
12335;DHT22;6233;51.560;9.986;2022-12-24T03:46:26;8.60;99.90
12335;DHT22;6233;51.560;9.986;2022-12-24T03:49:28;8.70;99.90
12335;DHT22;6233;51.560;9.986;2022-12-24T03:52:30;8.70;99.90
12335;DHT22;6233;51.560;9.986;2022-12-24T03:55:31;8.70;99.90
12335;DHT22;6233;51.560;9.986;2022-12-24T03:58:33;8.70;99.90
12335;DHT22;6233;51.560;9.986;2022-12-24T04:01:35;8.70;99.90
12335;DHT22;6233;51.560;9.986;2022-12-24T04:04:37;8.60;99.90
12335;DHT22;6233;51.560;9.986;2022-12-24T04:07:38;8.60;99.90
12335;DHT22;6233;51.560;9.986;2022-12-24T04:10:40;8.60;99.90
12335;DHT22;6233;51.560;9.986;2022-12-24T04:13:42;8.60;99.90
12335;DHT22;6233;51.560;9.986;2022-12-24T04:16:43;8.60;99.90
12335;DHT22;6233;51.560;9.986;2022-12-24T04:19:52;8.60;99.90
12335;DHT22;6233;51.560;9.986;2022-12-24T04:22:54;8.50;99.90
12335;DHT22;6233;51.560;9.986;2022-12-24T04:25:58;8.50;99.90
12335;DHT22;6233;51.560;9.986;2022-12-24T04:29:00;8.60;99.90
12335;DHT22;6233;51.560;9.986;2022-12-24T04:32:02;8.50;99.90
12335;DHT22;6233;51.560;9.986;2022-12-24T04:35:04;8.50;99.90
12335;DHT22;6233;51.560;9.986;2022-12-24T04:38:07;8.50;99.90
12335;DHT22;6233;51.560;9.986;2022-12-24T04:41:12;8.50;99.90
12335;DHT22;6233;51.560;9.986;2022-12-24T04:44:23;8.50;99.90
12335;DHT22;6233;51.560;9.986;2022-12-24T04:47:25;8.50;99.90
12335;DHT22;6233;51.560;9.986;2022-12-24T04:50:26;8.50;99.90
12335;DHT22;6233;51.560;9.986;2022-12-24T04:53:29;8.50;99.90
12335;DHT22;6233;51.560;9.986;2022-12-24T04:56:31;8.50;99.90
12335;DHT22;6233;51.560;9.986;2022-12-24T04:59:33;8.50;99.90
12335;DHT22;6233;51.560;9.986;2022-12-24T05:02:35;8.50;99.90
12335;DHT22;6233;51.560;9.986;2022-12-24T05:05:37;8.50;99.90
12335;DHT22;6233;51.560;9.986;2022-12-24T05:08:39;8.40;99.90
12335;DHT22;6233;51.560;9.986;2022-12-24T05:11:40;8.50;99.90
12335;DHT22;6233;51.560;9.986;2022-12-24T05:14:42;8.50;99.90
12335;DHT22;6233;51.560;9.986;2022-12-24T05:17:44;8.50;99.90
12335;DHT22;6233;51.560;9.986;2022-12-24T05:20:46;8.50;99.90
12335;DHT22;6233;51.560;9.986;2022-12-24T05:23:49;8.50;99.90
12335;DHT22;6233;51.560;9.986;2022-12-24T05:27:10;8.50;99.90
12335;DHT22;6233;51.560;9.986;2022-12-24T05:30:11;8.50;99.90
12335;DHT22;6233;51.560;9.986;2022-12-24T05:33:13;8.50;99.90
12335;DHT22;6233;51.560;9.986;2022-12-24T05:36:15;8.40;99.90
12335;DHT22;6233;51.560;9.986;2022-12-24T05:39:17;8.40;99.90
12335;DHT22;6233;51.560;9.986;2022-12-24T05:42:19;8.40;99.90
12335;DHT22;6233;51.560;9.986;2022-12-24T05:45:21;8.30;99.90
12335;DHT22;6233;51.560;9.986;2022-12-24T05:48:23;8.30;99.90
12335;DHT22;6233;51.560;9.986;2022-12-24T05:51:24;8.30;99.90
12335;DHT22;6233;51.560;9.986;2022-12-24T05:54:26;8.30;99.90
12335;DHT22;6233;51.560;9.986;2022-12-24T05:57:28;8.30;99.90
12335;DHT22;6233;51.560;9.986;2022-12-24T06:00:29;8.30;99.90
12335;DHT22;6233;51.560;9.986;2022-12-24T06:03:32;8.20;99.90
12335;DHT22;6233;51.560;9.986;2022-12-24T06:06:34;8.20;99.90
12335;DHT22;6233;51.560;9.986;2022-12-24T06:09:35;8.20;99.90
12335;DHT22;6233;51.560;9.986;2022-12-24T06:12:37;8.20;99.90
12335;DHT22;6233;51.560;9.986;2022-12-24T06:15:39;8.20;99.90
12335;DHT22;6233;51.560;9.986;2022-12-24T06:18:41;8.20;99.90
12335;DHT22;6233;51.560;9.986;2022-12-24T06:21:43;8.10;99.90
12335;DHT22;6233;51.560;9.986;2022-12-24T06:24:45;8.10;99.90
12335;DHT22;6233;51.560;9.986;2022-12-24T06:27:47;8.10;99.90
12335;DHT22;6233;51.560;9.986;2022-12-24T06:30:49;8.10;99.90
12335;DHT22;6233;51.560;9.986;2022-12-24T06:33:52;8.10;99.90
12335;DHT22;6233;51.560;9.986;2022-12-24T06:36:53;8.10;99.90
12335;DHT22;6233;51.560;9.986;2022-12-24T06:39:55;8.10;99.90
12335;DHT22;6233;51.560;9.986;2022-12-24T06:42:57;8.10;99.90
12335;DHT22;6233;51.560;9.986;2022-12-24T06:45:59;8.10;99.90
12335;DHT22;6233;51.560;9.986;2022-12-24T06:49:01;8.10;99.90
12335;DHT22;6233;51.560;9.986;2022-12-24T06:52:03;8.10;99.90
12335;DHT22;6233;51.560;9.986;2022-12-24T06:55:05;8.10;99.90
12335;DHT22;6233;51.560;9.986;2022-12-24T06:58:10;8.10;99.90
12335;DHT22;6233;51.560;9.986;2022-12-24T07:01:13;8.10;99.90
12335;DHT22;6233;51.560;9.986;2022-12-24T07:04:16;8.20;99.90
12335;DHT22;6233;51.560;9.986;2022-12-24T07:07:21;8.20;99.90
12335;DHT22;6233;51.560;9.986;2022-12-24T07:10:25;8.20;99.90
12335;DHT22;6233;51.560;9.986;2022-12-24T07:13:27;8.20;99.90
12335;DHT22;6233;51.560;9.986;2022-12-24T07:16:29;8.20;99.90
12335;DHT22;6233;51.560;9.986;2022-12-24T07:19:31;8.20;99.90
12335;DHT22;6233;51.560;9.986;2022-12-24T07:22:34;8.20;99.90
12335;DHT22;6233;51.560;9.986;2022-12-24T07:25:36;8.10;99.90
12335;DHT22;6233;51.560;9.986;2022-12-24T07:28:46;8.10;99.90
12335;DHT22;6233;51.560;9.986;2022-12-24T07:31:48;8.00;99.90
12335;DHT22;6233;51.560;9.986;2022-12-24T07:34:49;8.00;99.90
12335;DHT22;6233;51.560;9.986;2022-12-24T07:37:51;7.90;99.90
12335;DHT22;6233;51.560;9.986;2022-12-24T07:40:56;7.90;99.90
12335;DHT22;6233;51.560;9.986;2022-12-24T07:43:58;7.90;99.90
12335;DHT22;6233;51.560;9.986;2022-12-24T07:47:00;7.90;99.90
12335;DHT22;6233;51.560;9.986;2022-12-24T07:50:04;8.00;99.90
12335;DHT22;6233;51.560;9.986;2022-12-24T07:53:07;7.90;99.90
12335;DHT22;6233;51.560;9.986;2022-12-24T07:56:09;7.80;99.90
12335;DHT22;6233;51.560;9.986;2022-12-24T07:59:13;7.80;99.90
12335;DHT22;6233;51.560;9.986;2022-12-24T08:02:18;7.80;99.90
12335;DHT22;6233;51.560;9.986;2022-12-24T08:05:20;7.80;99.90
12335;DHT22;6233;51.560;9.986;2022-12-24T08:08:21;7.80;99.90
12335;DHT22;6233;51.560;9.986;2022-12-24T08:11:23;7.90;99.90
12335;DHT22;6233;51.560;9.986;2022-12-24T08:14:25;7.90;99.90
12335;DHT22;6233;51.560;9.986;2022-12-24T08:17:26;7.90;99.90
12335;DHT22;6233;51.560;9.986;2022-12-24T08:20:32;7.90;99.90
12335;DHT22;6233;51.560;9.986;2022-12-24T08:23:37;8.00;99.90
12335;DHT22;6233;51.560;9.986;2022-12-24T08:26:39;8.00;99.90
12335;DHT22;6233;51.560;9.986;2022-12-24T08:29:41;8.00;99.90
12335;DHT22;6233;51.560;9.986;2022-12-24T08:32:43;8.00;99.90
12335;DHT22;6233;51.560;9.986;2022-12-24T08:35:49;7.90;99.90
12335;DHT22;6233;51.560;9.986;2022-12-24T08:38:51;7.90;99.90
12335;DHT22;6233;51.560;9.986;2022-12-24T08:41:52;7.90;99.90
12335;DHT22;6233;51.560;9.986;2022-12-24T08:44:54;7.90;99.90
12335;DHT22;6233;51.560;9.986;2022-12-24T08:47:58;7.80;99.90
12335;DHT22;6233;51.560;9.986;2022-12-24T08:51:08;7.80;99.90
12335;DHT22;6233;51.560;9.986;2022-12-24T08:54:12;7.90;99.90
12335;DHT22;6233;51.560;9.986;2022-12-24T08:57:13;7.90;99.90
12335;DHT22;6233;51.560;9.986;2022-12-24T09:00:16;8.00;99.90
12335;DHT22;6233;51.560;9.986;2022-12-24T09:03:18;8.00;99.90
12335;DHT22;6233;51.560;9.986;2022-12-24T09:06:28;8.00;99.90
12335;DHT22;6233;51.560;9.986;2022-12-24T09:09:29;8.10;99.90
12335;DHT22;6233;51.560;9.986;2022-12-24T09:12:38;8.10;99.90
12335;DHT22;6233;51.560;9.986;2022-12-24T09:15:40;8.10;99.90
12335;DHT22;6233;51.560;9.986;2022-12-24T09:18:42;8.10;99.90
12335;DHT22;6233;51.560;9.986;2022-12-24T09:21:44;8.10;99.90
12335;DHT22;6233;51.560;9.986;2022-12-24T09:24:45;8.10;99.90
12335;DHT22;6233;51.560;9.986;2022-12-24T09:27:47;8.20;99.90
12335;DHT22;6233;51.560;9.986;2022-12-24T09:31:09;8.10;99.90
12335;DHT22;6233;51.560;9.986;2022-12-24T09:34:11;8.20;99.90
12335;DHT22;6233;51.560;9.986;2022-12-24T09:37:13;8.20;99.90
12335;DHT22;6233;51.560;9.986;2022-12-24T09:40:21;8.20;99.90
12335;DHT22;6233;51.560;9.986;2022-12-24T09:43:30;8.30;99.90
12335;DHT22;6233;51.560;9.986;2022-12-24T09:46:39;8.30;99.90
12335;DHT22;6233;51.560;9.986;2022-12-24T09:49:45;8.40;99.90
12335;DHT22;6233;51.560;9.986;2022-12-24T09:52:48;8.50;99.90
12335;DHT22;6233;51.560;9.986;2022-12-24T09:55:55;8.50;99.90
12335;DHT22;6233;51.560;9.986;2022-12-24T09:59:03;8.50;99.90
12335;DHT22;6233;51.560;9.986;2022-12-24T10:02:10;8.50;99.90
12335;DHT22;6233;51.560;9.986;2022-12-24T10:05:14;8.60;99.90
12335;DHT22;6233;51.560;9.986;2022-12-24T10:15:40;8.60;99.90
12335;DHT22;6233;51.560;9.986;2022-12-24T10:25:29;8.50;99.90
12335;DHT22;6233;51.560;9.986;2022-12-24T10:29:09;8.50;99.90
12335;DHT22;6233;51.560;9.986;2022-12-24T10:32:20;8.50;99.90
12335;DHT22;6233;51.560;9.986;2022-12-24T10:35:28;8.50;99.90
12335;DHT22;6233;51.560;9.986;2022-12-24T10:38:39;8.60;99.90
12335;DHT22;6233;51.560;9.986;2022-12-24T10:41:41;8.60;99.90
12335;DHT22;6233;51.560;9.986;2022-12-24T10:44:49;8.60;99.90
12335;DHT22;6233;51.560;9.986;2022-12-24T10:47:56;8.60;99.90
12335;DHT22;6233;51.560;9.986;2022-12-24T10:51:05;8.60;99.90
12335;DHT22;6233;51.560;9.986;2022-12-24T10:54:23;8.60;99.90
12335;DHT22;6233;51.560;9.986;2022-12-24T10:57:28;8.60;99.90
12335;DHT22;6233;51.560;9.986;2022-12-24T11:00:30;8.60;99.90
12335;DHT22;6233;51.560;9.986;2022-12-24T11:03:37;8.60;99.90
12335;DHT22;6233;51.560;9.986;2022-12-24T11:06:58;8.60;99.90
12335;DHT22;6233;51.560;9.986;2022-12-24T11:10:04;8.60;99.90
12335;DHT22;6233;51.560;9.986;2022-12-24T11:13:29;8.70;99.90
12335;DHT22;6233;51.560;9.986;2022-12-24T11:16:51;8.70;99.90
12335;DHT22;6233;51.560;9.986;2022-12-24T11:19:53;8.70;99.90
12335;DHT22;6233;51.560;9.986;2022-12-24T11:22:58;8.80;99.90
12335;DHT22;6233;51.560;9.986;2022-12-24T11:26:02;8.80;99.90
12335;DHT22;6233;51.560;9.986;2022-12-24T11:29:21;8.80;99.90
12335;DHT22;6233;51.560;9.986;2022-12-24T11:32:23;8.90;99.90
12335;DHT22;6233;51.560;9.986;2022-12-24T11:35:26;8.90;99.90
12335;DHT22;6233;51.560;9.986;2022-12-24T11:38:31;8.90;99.90
12335;DHT22;6233;51.560;9.986;2022-12-24T11:41:36;8.90;99.90
12335;DHT22;6233;51.560;9.986;2022-12-24T11:44:46;8.90;99.90
12335;DHT22;6233;51.560;9.986;2022-12-24T11:47:50;9.00;99.90
12335;DHT22;6233;51.560;9.986;2022-12-24T11:50:58;9.10;99.90
12335;DHT22;6233;51.560;9.986;2022-12-24T11:54:25;9.10;99.90
12335;DHT22;6233;51.560;9.986;2022-12-24T11:57:41;9.00;99.90
12335;DHT22;6233;51.560;9.986;2022-12-24T12:04:27;9.10;99.90
12335;DHT22;6233;51.560;9.986;2022-12-24T12:07:33;9.10;99.90
12335;DHT22;6233;51.560;9.986;2022-12-24T12:10:38;9.10;99.90
12335;DHT22;6233;51.560;9.986;2022-12-24T12:13:43;9.20;99.90
12335;DHT22;6233;51.560;9.986;2022-12-24T12:16:58;9.10;99.90
12335;DHT22;6233;51.560;9.986;2022-12-24T12:20:12;9.10;99.90
12335;DHT22;6233;51.560;9.986;2022-12-24T12:26:29;9.20;99.90
12335;DHT22;6233;51.560;9.986;2022-12-24T12:29:35;9.20;99.90
12335;DHT22;6233;51.560;9.986;2022-12-24T12:33:10;9.20;99.90
12335;DHT22;6233;51.560;9.986;2022-12-24T12:36:17;9.30;99.90
12335;DHT22;6233;51.560;9.986;2022-12-24T12:39:21;9.30;99.90
12335;DHT22;6233;51.560;9.986;2022-12-24T12:42:34;9.30;99.90
12335;DHT22;6233;51.560;9.986;2022-12-24T12:46:01;9.30;99.90
12335;DHT22;6233;51.560;9.986;2022-12-24T12:59:11;9.40;99.90
12335;DHT22;6233;51.560;9.986;2022-12-24T13:21:53;9.50;99.90
12335;DHT22;6233;51.560;9.986;2022-12-24T13:24:56;9.50;99.90
12335;DHT22;6233;51.560;9.986;2022-12-24T13:34:35;9.50;99.90
12335;DHT22;6233;51.560;9.986;2022-12-24T13:37:37;9.50;99.90
12335;DHT22;6233;51.560;9.986;2022-12-24T13:40:39;9.50;99.90
12335;DHT22;6233;51.560;9.986;2022-12-24T13:50:37;9.40;99.90
12335;DHT22;6233;51.560;9.986;2022-12-24T13:53:45;9.40;99.90
12335;DHT22;6233;51.560;9.986;2022-12-24T13:56:47;9.40;99.90
12335;DHT22;6233;51.560;9.986;2022-12-24T14:09:26;9.40;99.90
12335;DHT22;6233;51.560;9.986;2022-12-24T14:12:32;9.40;99.90
12335;DHT22;6233;51.560;9.986;2022-12-24T14:25:23;9.30;99.90
12335;DHT22;6233;51.560;9.986;2022-12-24T14:28:32;9.30;99.90
12335;DHT22;6233;51.560;9.986;2022-12-24T14:31:35;9.30;99.90
12335;DHT22;6233;51.560;9.986;2022-12-24T14:34:37;9.40;99.90
12335;DHT22;6233;51.560;9.986;2022-12-24T14:37:41;9.40;99.90
12335;DHT22;6233;51.560;9.986;2022-12-24T14:47:39;9.40;99.90
12335;DHT22;6233;51.560;9.986;2022-12-24T14:57:18;9.40;99.90
12335;DHT22;6233;51.560;9.986;2022-12-24T15:00:20;9.30;99.90
12335;DHT22;6233;51.560;9.986;2022-12-24T15:03:24;9.30;99.90
12335;DHT22;6233;51.560;9.986;2022-12-24T15:06:27;9.20;99.90
12335;DHT22;6233;51.560;9.986;2022-12-24T15:09:30;9.20;99.90
12335;DHT22;6233;51.560;9.986;2022-12-24T15:12:34;9.20;99.90
12335;DHT22;6233;51.560;9.986;2022-12-24T15:15:36;9.10;99.90
12335;DHT22;6233;51.560;9.986;2022-12-24T15:18:42;9.10;99.90
12335;DHT22;6233;51.560;9.986;2022-12-24T15:21:48;9.00;99.90
12335;DHT22;6233;51.560;9.986;2022-12-24T15:24:50;8.90;99.90
12335;DHT22;6233;51.560;9.986;2022-12-24T15:27:52;8.90;99.90
12335;DHT22;6233;51.560;9.986;2022-12-24T15:31:07;8.80;99.90
12335;DHT22;6233;51.560;9.986;2022-12-24T15:34:37;8.80;99.90
12335;DHT22;6233;51.560;9.986;2022-12-24T15:37:40;8.70;99.90
12335;DHT22;6233;51.560;9.986;2022-12-24T15:40:47;8.60;99.90
12335;DHT22;6233;51.560;9.986;2022-12-24T15:43:50;8.60;99.90
12335;DHT22;6233;51.560;9.986;2022-12-24T15:47:06;8.60;99.90
12335;DHT22;6233;51.560;9.986;2022-12-24T15:50:15;8.50;99.90
12335;DHT22;6233;51.560;9.986;2022-12-24T15:53:29;8.50;99.90
12335;DHT22;6233;51.560;9.986;2022-12-24T15:56:37;8.40;99.90
12335;DHT22;6233;51.560;9.986;2022-12-24T15:59:40;8.40;99.90
12335;DHT22;6233;51.560;9.986;2022-12-24T16:02:42;8.40;99.90
12335;DHT22;6233;51.560;9.986;2022-12-24T16:05:45;8.30;99.90
12335;DHT22;6233;51.560;9.986;2022-12-24T16:08:54;8.30;99.90
12335;DHT22;6233;51.560;9.986;2022-12-24T16:11:57;8.30;99.90
12335;DHT22;6233;51.560;9.986;2022-12-24T16:15:04;8.30;99.90
12335;DHT22;6233;51.560;9.986;2022-12-24T16:18:15;8.30;99.90
12335;DHT22;6233;51.560;9.986;2022-12-24T16:24:30;8.10;99.90
12335;DHT22;6233;51.560;9.986;2022-12-24T16:27:32;8.10;99.90
12335;DHT22;6233;51.560;9.986;2022-12-24T16:30:34;8.10;99.90
12335;DHT22;6233;51.560;9.986;2022-12-24T16:33:38;8.10;99.90
12335;DHT22;6233;51.560;9.986;2022-12-24T16:36:44;8.00;99.90
12335;DHT22;6233;51.560;9.986;2022-12-24T16:39:49;8.00;99.90
12335;DHT22;6233;51.560;9.986;2022-12-24T16:42:50;7.90;99.90
12335;DHT22;6233;51.560;9.986;2022-12-24T16:46:13;7.90;99.90
12335;DHT22;6233;51.560;9.986;2022-12-24T16:49:19;7.90;99.90
12335;DHT22;6233;51.560;9.986;2022-12-24T16:52:23;7.80;99.90
12335;DHT22;6233;51.560;9.986;2022-12-24T16:55:26;7.80;99.90
12335;DHT22;6233;51.560;9.986;2022-12-24T16:58:28;7.80;99.90
12335;DHT22;6233;51.560;9.986;2022-12-24T17:01:31;7.70;99.90
12335;DHT22;6233;51.560;9.986;2022-12-24T17:04:33;7.70;99.90
12335;DHT22;6233;51.560;9.986;2022-12-24T17:07:35;7.70;99.90
12335;DHT22;6233;51.560;9.986;2022-12-24T17:10:49;7.70;99.90
12335;DHT22;6233;51.560;9.986;2022-12-24T17:13:51;7.80;99.90
12335;DHT22;6233;51.560;9.986;2022-12-24T17:16:53;7.80;99.90
12335;DHT22;6233;51.560;9.986;2022-12-24T17:19:56;7.80;99.90
12335;DHT22;6233;51.560;9.986;2022-12-24T17:22:58;7.90;99.90
12335;DHT22;6233;51.560;9.986;2022-12-24T17:26:00;7.90;99.90
12335;DHT22;6233;51.560;9.986;2022-12-24T17:29:01;7.90;99.90
12335;DHT22;6233;51.560;9.986;2022-12-24T17:32:05;7.90;99.90
12335;DHT22;6233;51.560;9.986;2022-12-24T17:35:07;7.90;99.90
12335;DHT22;6233;51.560;9.986;2022-12-24T17:38:09;8.00;99.90
12335;DHT22;6233;51.560;9.986;2022-12-24T17:41:13;8.00;99.90
12335;DHT22;6233;51.560;9.986;2022-12-24T17:44:15;8.00;99.90
12335;DHT22;6233;51.560;9.986;2022-12-24T17:47:17;8.00;99.90
12335;DHT22;6233;51.560;9.986;2022-12-24T17:50:19;8.00;99.90
12335;DHT22;6233;51.560;9.986;2022-12-24T17:53:21;8.00;99.90
12335;DHT22;6233;51.560;9.986;2022-12-24T17:56:23;8.00;99.90
12335;DHT22;6233;51.560;9.986;2022-12-24T17:59:25;7.90;99.90
12335;DHT22;6233;51.560;9.986;2022-12-24T18:02:27;7.90;99.90
12335;DHT22;6233;51.560;9.986;2022-12-24T18:05:29;7.90;99.90
12335;DHT22;6233;51.560;9.986;2022-12-24T18:08:31;7.80;99.90
12335;DHT22;6233;51.560;9.986;2022-12-24T18:11:37;7.80;99.90
12335;DHT22;6233;51.560;9.986;2022-12-24T18:14:39;7.80;99.90
12335;DHT22;6233;51.560;9.986;2022-12-24T18:17:41;7.80;99.90
12335;DHT22;6233;51.560;9.986;2022-12-24T18:20:43;7.80;99.90
12335;DHT22;6233;51.560;9.986;2022-12-24T18:23:49;7.80;99.90
12335;DHT22;6233;51.560;9.986;2022-12-24T18:26:51;7.70;99.90
12335;DHT22;6233;51.560;9.986;2022-12-24T18:29:53;7.70;99.90
12335;DHT22;6233;51.560;9.986;2022-12-24T18:32:55;7.70;99.90
12335;DHT22;6233;51.560;9.986;2022-12-24T18:35:58;7.70;99.90
12335;DHT22;6233;51.560;9.986;2022-12-24T18:39:00;7.60;99.90
12335;DHT22;6233;51.560;9.986;2022-12-24T18:42:02;7.60;99.90
12335;DHT22;6233;51.560;9.986;2022-12-24T18:45:04;7.60;99.90
12335;DHT22;6233;51.560;9.986;2022-12-24T18:48:06;7.60;99.90
12335;DHT22;6233;51.560;9.986;2022-12-24T18:51:10;7.50;99.90
12335;DHT22;6233;51.560;9.986;2022-12-24T18:54:12;7.50;99.90
12335;DHT22;6233;51.560;9.986;2022-12-24T18:57:13;7.50;99.90
12335;DHT22;6233;51.560;9.986;2022-12-24T19:00:15;7.40;99.90
12335;DHT22;6233;51.560;9.986;2022-12-24T19:03:17;7.40;99.90
12335;DHT22;6233;51.560;9.986;2022-12-24T19:06:20;7.40;99.90
12335;DHT22;6233;51.560;9.986;2022-12-24T19:09:22;7.40;99.90
12335;DHT22;6233;51.560;9.986;2022-12-24T19:12:23;7.40;99.90
12335;DHT22;6233;51.560;9.986;2022-12-24T19:15:25;7.40;99.90
12335;DHT22;6233;51.560;9.986;2022-12-24T19:18:36;7.40;99.90
12335;DHT22;6233;51.560;9.986;2022-12-24T19:21:37;7.40;99.90
12335;DHT22;6233;51.560;9.986;2022-12-24T19:24:39;7.40;99.90
12335;DHT22;6233;51.560;9.986;2022-12-24T19:28:11;7.30;99.90
12335;DHT22;6233;51.560;9.986;2022-12-24T19:31:16;7.30;99.90
12335;DHT22;6233;51.560;9.986;2022-12-24T19:34:19;7.30;99.90
12335;DHT22;6233;51.560;9.986;2022-12-24T19:37:20;7.30;99.90
12335;DHT22;6233;51.560;9.986;2022-12-24T19:40:22;7.30;99.90
12335;DHT22;6233;51.560;9.986;2022-12-24T19:43:24;7.20;99.90
12335;DHT22;6233;51.560;9.986;2022-12-24T19:46:28;7.20;99.90
12335;DHT22;6233;51.560;9.986;2022-12-24T19:49:30;7.20;99.90
12335;DHT22;6233;51.560;9.986;2022-12-24T19:52:32;7.20;99.90
12335;DHT22;6233;51.560;9.986;2022-12-24T19:55:34;7.20;99.90
12335;DHT22;6233;51.560;9.986;2022-12-24T19:58:36;7.20;99.90
12335;DHT22;6233;51.560;9.986;2022-12-24T20:01:38;7.20;99.90
12335;DHT22;6233;51.560;9.986;2022-12-24T20:04:40;7.20;99.90
12335;DHT22;6233;51.560;9.986;2022-12-24T20:07:42;7.20;99.90
12335;DHT22;6233;51.560;9.986;2022-12-24T20:10:44;7.20;99.90
12335;DHT22;6233;51.560;9.986;2022-12-24T20:13:45;7.20;99.90
12335;DHT22;6233;51.560;9.986;2022-12-24T20:16:47;7.20;99.90
12335;DHT22;6233;51.560;9.986;2022-12-24T20:19:50;7.20;99.90
12335;DHT22;6233;51.560;9.986;2022-12-24T20:22:52;7.20;99.90
12335;DHT22;6233;51.560;9.986;2022-12-24T20:25:59;7.10;99.90
12335;DHT22;6233;51.560;9.986;2022-12-24T20:29:08;7.10;99.90
12335;DHT22;6233;51.560;9.986;2022-12-24T20:32:10;7.00;99.90
12335;DHT22;6233;51.560;9.986;2022-12-24T20:35:11;7.00;99.90
12335;DHT22;6233;51.560;9.986;2022-12-24T20:38:16;6.90;99.90
12335;DHT22;6233;51.560;9.986;2022-12-24T20:41:21;6.90;99.90
12335;DHT22;6233;51.560;9.986;2022-12-24T20:44:23;6.90;99.90
12335;DHT22;6233;51.560;9.986;2022-12-24T20:47:26;6.90;99.90
12335;DHT22;6233;51.560;9.986;2022-12-24T20:50:27;6.90;99.90
12335;DHT22;6233;51.560;9.986;2022-12-24T20:53:37;6.90;99.90
12335;DHT22;6233;51.560;9.986;2022-12-24T20:56:40;6.90;99.90
12335;DHT22;6233;51.560;9.986;2022-12-24T20:59:42;6.80;99.90
12335;DHT22;6233;51.560;9.986;2022-12-24T21:02:44;6.90;99.90
12335;DHT22;6233;51.560;9.986;2022-12-24T21:05:47;6.90;99.90
12335;DHT22;6233;51.560;9.986;2022-12-24T21:08:49;6.90;99.90
12335;DHT22;6233;51.560;9.986;2022-12-24T21:11:54;6.80;99.90
12335;DHT22;6233;51.560;9.986;2022-12-24T21:14:55;6.80;99.90
12335;DHT22;6233;51.560;9.986;2022-12-24T21:17:58;6.80;99.90
12335;DHT22;6233;51.560;9.986;2022-12-24T21:21:00;6.80;99.90
12335;DHT22;6233;51.560;9.986;2022-12-24T21:24:03;6.80;99.90
12335;DHT22;6233;51.560;9.986;2022-12-24T21:27:05;6.90;99.90
12335;DHT22;6233;51.560;9.986;2022-12-24T21:30:08;6.90;99.90
12335;DHT22;6233;51.560;9.986;2022-12-24T21:37:13;6.90;99.90
12335;DHT22;6233;51.560;9.986;2022-12-24T21:40:15;7.00;99.90
12335;DHT22;6233;51.560;9.986;2022-12-24T21:43:17;7.00;99.90
12335;DHT22;6233;51.560;9.986;2022-12-24T21:46:22;7.00;99.90
12335;DHT22;6233;51.560;9.986;2022-12-24T21:49:25;7.10;99.90
12335;DHT22;6233;51.560;9.986;2022-12-24T21:52:45;7.10;99.90
12335;DHT22;6233;51.560;9.986;2022-12-24T21:55:47;7.10;99.90
12335;DHT22;6233;51.560;9.986;2022-12-24T21:58:50;7.10;99.90
12335;DHT22;6233;51.560;9.986;2022-12-24T22:01:51;7.10;99.90
12335;DHT22;6233;51.560;9.986;2022-12-24T22:04:53;7.10;99.90
12335;DHT22;6233;51.560;9.986;2022-12-24T22:07:55;7.10;99.90
12335;DHT22;6233;51.560;9.986;2022-12-24T22:11:16;7.10;99.90
12335;DHT22;6233;51.560;9.986;2022-12-24T22:14:42;7.10;99.90